METAR Data
IDs: Format: Raw Decoded Include TAF

Data at: 2034 UTC 25 Oct 2021

EDLW 252020Z 21009KT 9999 BKN020 OVC035 11/10 Q1018